createdAt,value
2022-08-16T00:00:04.319Z,25.48
2022-08-16T00:02:31.521Z,24.08
2022-08-16T00:04:59.854Z,27.77
2022-08-16T00:07:26.434Z,19.95
2022-08-16T00:09:55.742Z,23.67
2022-08-16T00:12:23.645Z,19.60
2022-08-16T00:14:49.988Z,19.92
2022-08-16T00:17:19.152Z,19.38
2022-08-16T00:19:45.762Z,21.27
2022-08-16T00:22:13.809Z,19.10
2022-08-16T00:24:41.723Z,20.27
2022-08-16T00:27:11.230Z,19.67
2022-08-16T00:29:37.454Z,19.75
2022-08-16T00:32:05.878Z,20.13
2022-08-16T00:34:43.228Z,20.40
2022-08-16T00:37:11.582Z,21.10
2022-08-16T00:39:38.883Z,18.15
2022-08-16T00:42:05.272Z,22.05
2022-08-16T00:44:36.535Z,26.50
2022-08-16T00:47:06.436Z,21.15
2022-08-16T00:49:44.522Z,19.67
2022-08-16T00:52:30.259Z,19.88
2022-08-16T00:54:57.078Z,20.45
2022-08-16T00:57:24.072Z,21.95
2022-08-16T00:59:59.005Z,19.63
2022-08-16T01:02:31.365Z,22.15
2022-08-16T01:05:09.526Z,21.40
2022-08-16T01:07:50.459Z,20.95
2022-08-16T01:10:18.651Z,20.92
2022-08-16T01:12:44.933Z,21.98
2022-08-16T01:15:11.176Z,21.02
2022-08-16T01:17:37.710Z,20.50
2022-08-16T01:20:03.926Z,22.70
2022-08-16T01:22:52.363Z,22.60
2022-08-16T01:25:18.922Z,28.50
2022-08-16T01:27:47.934Z,21.43
2022-08-16T01:30:19.941Z,22.95
2022-08-16T01:33:02.030Z,22.17
2022-08-16T01:35:29.288Z,19.65
2022-08-16T01:38:01.434Z,18.92
2022-08-16T01:40:28.006Z,20.42
2022-08-16T01:42:54.236Z,20.13
2022-08-16T01:45:21.820Z,20.42
2022-08-16T01:47:50.876Z,22.15
2022-08-16T01:50:43.388Z,24.38
2022-08-16T01:53:03.731Z,26.02
2022-08-16T01:55:35.750Z,22.15
2022-08-16T01:58:02.086Z,20.67
2022-08-16T02:00:29.803Z,24.90
2022-08-16T02:02:56.229Z,18.33
2022-08-16T02:05:23.547Z,24.73
2022-08-16T02:07:52.141Z,20.48
2022-08-16T02:10:19.763Z,21.50
2022-08-16T02:12:51.096Z,23.77
2022-08-16T02:15:24.904Z,25.30
2022-08-16T02:17:52.691Z,23.73
2022-08-16T02:20:19.105Z,22.02
2022-08-16T02:22:52.732Z,21.15
2022-08-16T02:25:21.645Z,22.63
2022-08-16T02:27:50.659Z,25.95
2022-08-16T02:30:35.972Z,20.73
2022-08-16T02:33:04.277Z,22.17
2022-08-16T02:35:30.779Z,25.05
2022-08-16T02:37:56.992Z,22.50
2022-08-16T02:40:28.136Z,24.95
2022-08-16T02:42:55.400Z,22.50
2022-08-16T02:45:24.886Z,24.33
2022-08-16T02:48:00.738Z,23.27
2022-08-16T02:51:03.088Z,25.52
2022-08-16T02:53:14.410Z,22.63
2022-08-16T02:55:44.588Z,23.83
2022-08-16T02:58:10.829Z,20.08
2022-08-16T03:00:39.862Z,21.07
2022-08-16T03:03:11.724Z,21.77
2022-08-16T03:05:41.479Z,22.83
2022-08-16T03:08:49.945Z,32.67
2022-08-16T03:10:54.976Z,23.05
2022-08-16T03:13:25.645Z,20.83
2022-08-16T03:15:52.771Z,27.23
2022-08-16T03:18:34.615Z,26.00
2022-08-16T03:21:05.256Z,22.30
2022-08-16T03:23:35.956Z,26.55
2022-08-16T03:26:02.347Z,21.10
2022-08-16T03:28:28.667Z,25.10
2022-08-16T03:30:56.545Z,24.73
2022-08-16T03:33:22.765Z,27.55
2022-08-16T03:35:49.625Z,24.73
2022-08-16T03:38:34.537Z,22.90
2022-08-16T03:41:01.351Z,22.65
2022-08-16T03:43:51.197Z,23.08
2022-08-16T03:46:44.894Z,23.80
2022-08-16T03:49:01.856Z,23.70
2022-08-16T03:51:28.206Z,26.52
2022-08-16T03:53:57.753Z,22.27
2022-08-16T03:56:27.650Z,25.63
2022-08-16T03:58:56.684Z,27.80
2022-08-16T04:01:24.427Z,22.55
2022-08-16T04:03:55.747Z,24.42
2022-08-16T04:06:21.975Z,24.90
2022-08-16T04:08:48.220Z,25.10
2022-08-16T04:11:16.577Z,25.15
2022-08-16T04:14:00.265Z,23.37
2022-08-16T04:16:29.639Z,22.55
2022-08-16T04:19:02.658Z,24.23
2022-08-16T04:21:30.528Z,26.05
2022-08-16T04:23:58.364Z,22.20
2022-08-16T04:26:24.595Z,24.55
2022-08-16T04:29:17.123Z,25.05
2022-08-16T04:31:43.814Z,28.23
2022-08-16T04:34:10.170Z,23.90
2022-08-16T04:36:39.237Z,25.38
2022-08-16T04:39:05.536Z,27.05
2022-08-16T04:41:37.371Z,23.55
2022-08-16T04:44:32.400Z,24.80
2022-08-16T04:47:00.911Z,29.33
2022-08-16T04:49:43.741Z,25.50
2022-08-16T04:52:33.719Z,27.95
2022-08-16T04:54:58.005Z,24.83
2022-08-16T04:57:24.458Z,28.27
2022-08-16T04:59:56.466Z,26.20
2022-08-16T05:02:55.620Z,27.05
2022-08-16T05:05:09.025Z,24.05
2022-08-16T05:07:58.412Z,24.83
2022-08-16T05:10:26.401Z,26.23
2022-08-16T05:12:52.669Z,22.15
2022-08-16T05:15:18.916Z,28.33
2022-08-16T05:17:46.665Z,21.55
2022-08-16T05:20:39.227Z,23.10
2022-08-16T05:22:59.257Z,23.63
2022-08-16T05:25:40.759Z,28.67
2022-08-16T05:28:07.648Z,25.42
2022-08-16T05:30:38.322Z,22.33
2022-08-16T05:33:04.701Z,44.17
2022-08-16T05:35:31.038Z,26.55
2022-08-16T05:37:58.921Z,23.73
2022-08-16T05:40:25.189Z,30.92
2022-08-16T05:42:52.839Z,26.73
2022-08-16T05:45:23.269Z,26.17
2022-08-16T05:47:59.603Z,24.65
2022-08-16T05:50:28.175Z,25.73
2022-08-16T05:53:00.531Z,26.80
2022-08-16T05:55:27.578Z,49.42
2022-08-16T05:57:56.263Z,28.98
2022-08-16T06:00:22.896Z,25.30
2022-08-16T06:02:49.428Z,28.25
2022-08-16T06:05:16.469Z,22.88
2022-08-16T06:07:42.807Z,25.55
2022-08-16T06:10:09.723Z,25.48
2022-08-16T06:12:36.207Z,26.35
2022-08-16T06:15:04.505Z,26.40
2022-08-16T06:17:42.508Z,27.48
2022-08-16T06:20:10.329Z,26.17
2022-08-16T06:22:39.525Z,29.75
2022-08-16T06:25:05.903Z,25.80
2022-08-16T06:27:39.734Z,25.60
2022-08-16T06:30:07.103Z,25.58
2022-08-16T06:32:38.343Z,32.83
2022-08-16T06:35:09.413Z,25.50
2022-08-16T06:37:38.421Z,24.13
2022-08-16T06:40:12.911Z,27.30
2022-08-16T06:42:47.922Z,27.90
2022-08-16T06:45:18.770Z,25.58
2022-08-16T06:47:54.365Z,27.20
2022-08-16T06:50:29.285Z,24.60
2022-08-16T06:52:59.845Z,30.23
2022-08-16T06:55:29.912Z,22.75
2022-08-16T06:58:00.808Z,26.83
2022-08-16T07:00:27.224Z,23.80
2022-08-16T07:02:54.000Z,22.95
2022-08-16T07:05:20.446Z,21.25
2022-08-16T07:07:54.120Z,25.65
2022-08-16T07:10:25.821Z,19.52
2022-08-16T07:13:03.836Z,25.38
2022-08-16T07:15:30.909Z,21.33
2022-08-16T07:17:57.167Z,20.55
2022-08-16T07:20:34.960Z,21.67
2022-08-16T07:23:02.645Z,19.33
2022-08-16T07:25:40.283Z,21.98
2022-08-16T07:28:06.952Z,23.30
2022-08-16T07:30:46.490Z,19.77
2022-08-16T07:33:15.942Z,21.80
2022-08-16T07:35:44.418Z,20.75
2022-08-16T07:38:19.489Z,25.45
2022-08-16T07:40:59.493Z,21.33
2022-08-16T07:43:28.952Z,24.77
2022-08-16T07:45:55.983Z,22.05
2022-08-16T07:48:22.369Z,23.48
2022-08-16T07:50:56.041Z,21.83
2022-08-16T07:53:24.973Z,23.90
2022-08-16T07:55:55.526Z,23.85
2022-08-16T07:58:35.235Z,26.70
2022-08-16T08:01:04.894Z,20.60
2022-08-16T08:03:39.949Z,20.30
2022-08-16T08:06:10.357Z,22.58
2022-08-16T08:08:49.192Z,18.00
2022-08-16T08:11:18.319Z,22.10
2022-08-16T08:13:44.930Z,22.67
2022-08-16T08:16:18.372Z,20.25
2022-08-16T08:18:50.125Z,21.85
2022-08-16T08:21:17.113Z,18.90
2022-08-16T08:23:44.908Z,28.33
2022-08-16T08:26:17.517Z,17.65
2022-08-16T08:28:44.240Z,16.67
2022-08-16T08:31:10.484Z,20.83
2022-08-16T08:33:46.686Z,18.45
2022-08-16T08:36:21.764Z,23.70
2022-08-16T08:38:48.609Z,21.00
2022-08-16T08:41:18.584Z,17.25
2022-08-16T08:43:46.057Z,18.77
2022-08-16T08:46:18.356Z,19.15
2022-08-16T08:48:59.124Z,19.20
2022-08-16T08:51:27.453Z,16.40
2022-08-16T08:53:57.939Z,18.23
2022-08-16T08:56:25.680Z,16.27
2022-08-16T08:58:53.997Z,18.42
2022-08-16T09:01:31.322Z,17.38
2022-08-16T09:04:02.464Z,19.08
2022-08-16T09:06:30.895Z,19.75
2022-08-16T09:08:57.171Z,19.58
2022-08-16T09:11:23.901Z,23.02
2022-08-16T09:14:07.146Z,20.60
2022-08-16T09:17:00.797Z,21.63
2022-08-16T09:19:19.656Z,18.70
2022-08-16T09:21:59.465Z,17.33
2022-08-16T09:24:46.855Z,14.82
2022-08-16T09:27:12.036Z,14.50
2022-08-16T09:29:45.307Z,14.35
2022-08-16T09:32:12.060Z,16.63
2022-08-16T09:34:38.308Z,17.52
2022-08-16T09:37:17.742Z,20.02
2022-08-16T09:39:50.327Z,15.10
2022-08-16T09:42:16.794Z,14.13
2022-08-16T09:45:10.684Z,16.17
2022-08-16T09:47:56.766Z,16.52
2022-08-16T09:50:22.931Z,15.50
2022-08-16T09:52:49.697Z,17.35
2022-08-16T09:55:16.048Z,13.75
2022-08-16T09:57:42.279Z,17.27
2022-08-16T10:00:44.258Z,19.05
2022-08-16T10:03:05.619Z,16.30
2022-08-16T10:08:01.552Z,13.90
2022-08-16T10:10:47.760Z,14.13
2022-08-16T10:13:14.435Z,13.52
2022-08-16T10:15:42.719Z,18.70
2022-08-16T10:19:01.958Z,25.25
2022-08-16T10:21:00.571Z,16.92
2022-08-16T10:23:28.730Z,15.02
2022-08-16T10:27:16.551Z,25.67
2022-08-16T10:28:42.240Z,15.30
2022-08-16T10:31:08.566Z,21.60
2022-08-16T10:33:40.206Z,14.50
2022-08-16T10:36:07.529Z,12.93
2022-08-16T10:38:36.716Z,17.45
2022-08-16T10:41:03.497Z,20.30
2022-08-16T10:43:31.283Z,12.05
2022-08-16T10:46:00.918Z,11.82
2022-08-16T10:48:28.777Z,13.15
2022-08-16T10:50:55.270Z,10.10
2022-08-16T10:53:21.832Z,10.77
2022-08-16T10:55:48.157Z,12.48
2022-08-16T10:58:34.406Z,12.02
2022-08-16T11:01:25.053Z,12.68
2022-08-16T11:03:47.747Z,9.80
2022-08-16T11:06:19.168Z,16.73
2022-08-16T11:09:21.068Z,20.23
2022-08-16T11:12:13.208Z,13.05
2022-08-16T11:14:25.351Z,12.70
2022-08-16T11:17:10.496Z,10.40
2022-08-16T11:20:00.488Z,11.68
2022-08-16T11:22:46.911Z,13.05
2022-08-16T11:25:16.251Z,10.30
2022-08-16T11:27:56.162Z,15.50
2022-08-16T11:30:24.225Z,10.23
2022-08-16T11:33:04.044Z,12.07
2022-08-16T11:36:22.546Z,14.52
2022-08-16T11:38:46.678Z,15.38
2022-08-16T11:41:03.087Z,12.90
2022-08-16T11:43:29.316Z,12.90
2022-08-16T11:45:56.705Z,14.52
2022-08-16T11:48:23.028Z,10.93
2022-08-16T11:50:49.241Z,12.57
2022-08-16T11:53:15.465Z,14.70
2022-08-16T11:55:44.005Z,11.63
2022-08-16T11:58:11.100Z,11.52
2022-08-16T12:00:51.433Z,12.50
2022-08-16T12:03:18.288Z,11.13
2022-08-16T12:05:44.496Z,9.65
2022-08-16T12:08:10.731Z,13.60
2022-08-16T12:10:38.803Z,12.30
2022-08-16T12:13:05.025Z,12.27
2022-08-16T12:15:31.271Z,16.45
2022-08-16T12:20:27.533Z,12.07
2022-08-16T12:22:56.016Z,13.70
2022-08-16T12:25:22.466Z,11.13
2022-08-16T12:27:49.877Z,10.50
2022-08-16T12:30:21.745Z,12.60
2022-08-16T12:32:57.889Z,15.75
2022-08-16T12:35:24.744Z,10.40
2022-08-16T12:37:55.463Z,9.60
2022-08-16T12:40:24.955Z,10.75
2022-08-16T12:42:59.004Z,21.50
2022-08-16T12:45:25.548Z,11.73
2022-08-16T12:47:55.116Z,11.80
2022-08-16T12:50:32.960Z,10.07
2022-08-16T12:52:59.712Z,11.77
2022-08-16T12:55:33.509Z,10.05
2022-08-16T12:58:14.048Z,17.83
2022-08-16T13:00:54.170Z,14.98
2022-08-16T13:03:21.592Z,8.55
2022-08-16T13:05:55.401Z,11.93
2022-08-16T13:08:22.107Z,11.80
2022-08-16T13:10:53.832Z,13.55
2022-08-16T13:13:20.066Z,12.70
2022-08-16T13:15:55.792Z,9.32
2022-08-16T13:21:01.122Z,11.32
2022-08-16T13:23:27.403Z,10.68
2022-08-16T13:25:54.972Z,11.90
2022-08-16T13:28:21.507Z,21.13
2022-08-16T13:30:47.916Z,17.25
2022-08-16T13:33:17.567Z,9.25
2022-08-16T13:35:45.365Z,11.82
2022-08-16T13:38:24.432Z,17.10
2022-08-16T13:40:51.739Z,11.90
2022-08-16T13:43:17.973Z,14.23
2022-08-16T13:45:44.827Z,8.95
2022-08-16T13:48:11.458Z,8.15
2022-08-16T13:50:51.645Z,12.88
2022-08-16T13:53:18.428Z,11.40
2022-08-16T13:55:44.675Z,7.70
2022-08-16T13:58:37.561Z,8.18
2022-08-16T14:01:10.255Z,7.80
2022-08-16T14:03:36.590Z,7.93
2022-08-16T14:06:03.349Z,7.28
2022-08-16T14:08:29.689Z,8.18
2022-08-16T14:10:55.924Z,6.78
2022-08-16T14:13:22.160Z,7.20
2022-08-16T14:15:48.403Z,7.90
2022-08-16T14:18:19.844Z,8.50
2022-08-16T14:20:48.950Z,12.90
2022-08-16T14:23:17.520Z,9.32
2022-08-16T14:25:53.895Z,5.28
2022-08-16T14:28:20.681Z,7.47
2022-08-16T14:30:49.943Z,8.18
2022-08-16T14:33:17.687Z,10.13
2022-08-16T14:35:48.798Z,8.43
2022-08-16T14:38:18.578Z,8.55
2022-08-16T14:40:47.122Z,8.10
2022-08-16T14:43:18.989Z,7.22
2022-08-16T14:45:46.036Z,12.25
2022-08-16T14:48:20.265Z,11.75
2022-08-16T14:50:49.368Z,7.70
2022-08-16T14:53:15.725Z,9.43
2022-08-16T14:55:43.440Z,12.13
2022-08-16T14:58:10.491Z,12.07
2022-08-16T15:00:45.987Z,7.78
2022-08-16T15:03:12.270Z,9.98
2022-08-16T15:05:38.500Z,7.13
2022-08-16T15:08:05.242Z,7.35
2022-08-16T15:10:32.089Z,9.93
2022-08-16T15:12:58.752Z,8.82
2022-08-16T15:15:24.970Z,6.68
2022-08-16T15:17:56.625Z,6.43
2022-08-16T15:20:23.467Z,10.43
2022-08-16T15:22:52.648Z,6.13
2022-08-16T15:25:18.876Z,9.77
2022-08-16T15:27:45.163Z,9.85
2022-08-16T15:30:56.546Z,7.55
2022-08-16T15:33:07.326Z,8.98
2022-08-16T15:35:36.297Z,7.68
2022-08-16T15:38:08.985Z,22.30
2022-08-16T15:40:35.855Z,9.77
2022-08-16T15:43:02.116Z,8.00
2022-08-16T15:45:28.928Z,5.18
2022-08-16T15:47:56.017Z,6.30
2022-08-16T15:50:23.162Z,9.40
2022-08-16T15:52:49.499Z,6.68
2022-08-16T15:55:31.089Z,6.10
2022-08-16T15:58:01.705Z,6.97
2022-08-16T16:00:47.939Z,5.68
2022-08-16T16:03:14.220Z,7.82
2022-08-16T16:05:40.425Z,9.10
2022-08-16T16:08:12.323Z,6.82
2022-08-16T16:10:39.856Z,20.80
2022-08-16T16:13:06.126Z,10.15
2022-08-16T16:15:35.387Z,5.60
2022-08-16T16:18:05.400Z,11.38
2022-08-16T16:20:35.963Z,6.25
2022-08-16T16:23:10.055Z,8.43
2022-08-16T16:25:36.967Z,9.07
2022-08-16T16:28:03.225Z,6.63
2022-08-16T16:30:44.722Z,16.88
2022-08-16T16:33:11.669Z,8.20
2022-08-16T16:35:41.914Z,13.20
2022-08-16T16:38:13.241Z,8.63
2022-08-16T16:40:46.601Z,5.80
2022-08-16T16:43:20.649Z,9.15
2022-08-16T16:45:51.881Z,6.75
2022-08-16T16:48:18.124Z,7.13
2022-08-16T16:50:45.286Z,9.85
2022-08-16T16:53:18.006Z,7.78
2022-08-16T16:55:52.163Z,6.80
2022-08-16T16:58:28.971Z,7.03
2022-08-16T17:01:02.848Z,12.82
2022-08-16T17:03:29.957Z,11.18
2022-08-16T17:06:02.798Z,9.13
2022-08-16T17:08:35.807Z,8.20
2022-08-16T17:11:02.037Z,7.75
2022-08-16T17:13:28.500Z,12.52
2022-08-16T17:15:54.802Z,8.07
2022-08-16T17:19:16.173Z,11.40
2022-08-16T17:21:07.336Z,8.43
2022-08-16T17:23:59.090Z,9.63
2022-08-16T17:26:19.931Z,10.02
2022-08-16T17:28:57.964Z,9.93
2022-08-16T17:31:38.235Z,11.80
2022-08-16T17:34:30.789Z,8.90
2022-08-16T17:36:54.270Z,7.80
2022-08-16T17:39:20.915Z,9.32
2022-08-16T17:41:49.912Z,10.60
2022-08-16T17:44:16.118Z,9.90
2022-08-16T17:46:52.210Z,9.80
2022-08-16T17:49:19.104Z,8.85
2022-08-16T17:51:45.410Z,8.27
2022-08-16T17:54:20.412Z,9.57
2022-08-16T17:56:56.749Z,9.52
2022-08-16T17:59:22.969Z,9.35
2022-08-16T18:01:49.228Z,8.10
2022-08-16T18:04:48.665Z,9.48
2022-08-16T18:07:01.744Z,7.90
2022-08-16T18:09:28.014Z,8.68
2022-08-16T18:11:56.959Z,8.50
2022-08-16T18:14:51.198Z,9.32
2022-08-16T18:17:09.442Z,8.55
2022-08-16T18:19:35.832Z,7.00
2022-08-16T18:22:03.167Z,8.85
2022-08-16T18:24:29.450Z,8.18
2022-08-16T18:26:55.762Z,9.90
2022-08-16T18:29:22.030Z,10.50
2022-08-16T18:31:48.282Z,11.20
2022-08-16T18:34:14.493Z,15.18
2022-08-16T18:36:40.722Z,9.02
2022-08-16T18:39:07.037Z,9.43
2022-08-16T18:41:33.398Z,10.18
2022-08-16T18:44:24.933Z,20.17
2022-08-16T18:46:45.917Z,9.85
2022-08-16T18:49:18.196Z,9.15
2022-08-16T18:51:44.531Z,9.52
2022-08-16T18:54:10.741Z,13.75
2022-08-16T18:56:54.346Z,7.57
2022-08-16T18:59:23.247Z,8.10
2022-08-16T19:01:49.719Z,18.17
2022-08-16T19:04:50.601Z,14.38
2022-08-16T19:07:02.300Z,12.18
2022-08-16T19:09:28.567Z,14.23
2022-08-16T19:11:54.871Z,13.13
2022-08-16T19:14:21.108Z,9.77
2022-08-16T19:16:47.375Z,15.40
2022-08-16T19:19:13.600Z,10.88
2022-08-16T19:21:39.825Z,10.50
2022-08-16T19:24:06.098Z,16.35
2022-08-16T19:26:43.806Z,15.95
2022-08-16T19:29:11.871Z,10.50
2022-08-16T19:31:39.868Z,13.98
2022-08-16T19:34:06.087Z,14.55
2022-08-16T19:36:35.104Z,14.23
2022-08-16T19:39:04.754Z,12.80
2022-08-16T19:41:31.765Z,16.08
2022-08-16T19:43:58.023Z,13.82
2022-08-16T19:46:24.256Z,14.15
2022-08-16T19:48:50.500Z,15.35
2022-08-16T19:51:16.742Z,12.20
2022-08-16T19:53:42.988Z,15.32
2022-08-16T19:56:09.265Z,12.48
2022-08-16T19:58:35.506Z,10.85
2022-08-16T20:01:01.773Z,12.52
2022-08-16T20:03:28.062Z,15.70
2022-08-16T20:05:54.436Z,15.85
2022-08-16T20:08:20.676Z,12.77
2022-08-16T20:10:46.918Z,12.38
2022-08-16T20:13:13.140Z,10.70
2022-08-16T20:15:40.922Z,14.70
2022-08-16T20:18:17.226Z,11.25
2022-08-16T20:20:51.506Z,12.65
2022-08-16T20:23:24.369Z,13.20
2022-08-16T20:25:51.500Z,12.77
2022-08-16T20:28:39.507Z,14.68
2022-08-16T20:31:04.149Z,14.10
2022-08-16T20:33:30.367Z,18.85
2022-08-16T20:35:56.663Z,13.73
2022-08-16T20:38:22.900Z,18.95
2022-08-16T20:40:49.213Z,13.98
2022-08-16T20:43:15.476Z,15.40
2022-08-16T20:45:41.688Z,12.55
2022-08-16T20:48:07.924Z,17.40
2022-08-16T20:50:34.299Z,13.98
2022-08-16T20:53:00.542Z,22.98
2022-08-16T20:55:26.775Z,18.65
2022-08-16T20:57:55.129Z,15.95
2022-08-16T21:00:21.398Z,14.70
2022-08-16T21:02:47.640Z,12.27
2022-08-16T21:05:13.892Z,17.42
2022-08-16T21:07:40.403Z,12.00
2022-08-16T21:10:06.672Z,24.27
2022-08-16T21:12:34.780Z,16.08
2022-08-16T21:15:03.939Z,16.33
2022-08-16T21:17:30.210Z,20.10
2022-08-16T21:19:56.440Z,20.98
2022-08-16T21:22:22.680Z,18.65
2022-08-16T21:24:48.907Z,18.48
2022-08-16T21:27:20.245Z,17.52
2022-08-16T21:29:47.776Z,16.15
2022-08-16T21:32:14.772Z,21.50
2022-08-16T21:34:41.014Z,19.38
2022-08-16T21:37:07.263Z,13.57
2022-08-16T21:39:33.660Z,15.65
2022-08-16T21:41:59.964Z,17.42
2022-08-16T21:44:34.356Z,12.50
2022-08-16T21:47:05.101Z,17.83
2022-08-16T21:49:31.351Z,14.07
2022-08-16T21:51:57.595Z,15.50
2022-08-16T21:54:23.834Z,15.13
2022-08-16T21:56:50.066Z,15.57
2022-08-16T21:59:16.340Z,20.17
2022-08-16T22:01:42.717Z,17.17
2022-08-16T22:04:37.729Z,12.32
2022-08-16T22:06:55.264Z,14.93
2022-08-16T22:09:21.491Z,18.40
2022-08-16T22:11:47.760Z,18.40
2022-08-16T22:14:14.013Z,19.00
2022-08-16T22:16:40.284Z,15.10
2022-08-16T22:19:06.506Z,13.35
2022-08-16T22:21:32.741Z,27.60
2022-08-16T22:23:59.067Z,14.80
2022-08-16T22:26:30.319Z,15.15
2022-08-16T22:28:57.348Z,24.05
2022-08-16T22:31:23.655Z,14.50
2022-08-16T22:33:50.361Z,13.90
2022-08-16T22:36:16.606Z,18.63
2022-08-16T22:38:53.756Z,15.75
2022-08-16T22:41:23.091Z,17.30
2022-08-16T22:43:49.325Z,19.83
2022-08-16T22:46:15.569Z,18.35
2022-08-16T22:48:42.580Z,18.33
2022-08-16T22:51:09.088Z,22.23
2022-08-16T22:53:35.305Z,19.77
2022-08-16T22:56:03.774Z,23.55
2022-08-16T22:58:36.563Z,19.30
2022-08-16T23:01:03.512Z,19.23
2022-08-16T23:03:30.249Z,18.42
2022-08-16T23:05:56.496Z,19.48
2022-08-16T23:08:38.505Z,21.02
2022-08-16T23:11:06.043Z,20.45
2022-08-16T23:13:32.353Z,21.70
2022-08-16T23:15:58.593Z,18.85
2022-08-16T23:18:26.931Z,20.73
2022-08-16T23:20:53.350Z,19.52
2022-08-16T23:23:21.848Z,25.50
2022-08-16T23:25:48.368Z,20.30
2022-08-16T23:28:14.628Z,23.98
2022-08-16T23:30:40.892Z,25.83
2022-08-16T23:33:07.182Z,21.52
2022-08-16T23:35:45.282Z,19.23
2022-08-16T23:38:37.977Z,25.00
2022-08-16T23:40:58.430Z,18.00
2022-08-16T23:43:24.734Z,18.63
2022-08-16T23:45:50.980Z,22.15
2022-08-16T23:48:17.190Z,15.02
2022-08-16T23:50:43.432Z,19.17
2022-08-16T23:53:09.724Z,17.80
2022-08-16T23:55:35.976Z,18.27
2022-08-16T23:58:02.353Z,20.23
